Time;durP1;ratioP1;P1;durP2;ratioP2;P2;SDS_P1;SDS_P2;PMS_P1;PMS_P2;Temp;Humidity;BMP_temperature;BMP_pressure;BME280_temperature;BME280_humidity;BME280_pressure;Samples;Min_cycle;Max_cycle;Signal;HPM_P1;HPM_P2
2022/09/19 00:00:00;;;;;;;1.7;1.7;;;;;;;8.7;100.0;101540;;;;
2022/09/19 00:01:10;;;;;;;1.7;1.7;;;;;;;8.6;100.0;101540;;;;
2022/09/19 00:02:01;;;;;;;1.7;1.7;;;;;;;8.6;100.0;101540;;;;
2022/09/19 00:03:00;;;;;;;1.7;1.7;;;;;;;8.6;100.0;101540;;;;
2022/09/19 00:04:02;;;;;;;1.7;1.7;;;;;;;8.6;100.0;101540;;;;
2022/09/19 00:05:00;;;;;;;1.2;1.2;;;;;;;8.6;100.0;101540;;;;
2022/09/19 00:06:00;;;;;;;1.2;1.2;;;;;;;8.6;100.0;101540;;;;
2022/09/19 00:07:00;;;;;;;1.2;1.2;;;;;;;8.6;100.0;101540;;;;
2022/09/19 00:08:00;;;;;;;1.2;1.2;;;;;;;8.6;100.0;101540;;;;
2022/09/19 00:09:00;;;;;;;1.2;1.2;;;;;;;8.6;100.0;101540;;;;
2022/09/19 00:10:00;;;;;;;1.2;1.2;;;;;;;8.6;100.0;101540;;;;
2022/09/19 00:11:01;;;;;;;1.2;1.2;;;;;;;8.6;100.0;101540;;;;
2022/09/19 00:12:01;;;;;;;1.2;1.2;;;;;;;8.6;100.0;101540;;;;
2022/09/19 00:13:00;;;;;;;1.2;1.2;;;;;;;8.6;100.0;101540;;;;
2022/09/19 00:14:00;;;;;;;1.2;1.2;;;;;;;8.6;100.0;101540;;;;
2022/09/19 00:15:00;;;;;;;1.2;1.2;;;;;;;8.5;100.0;101540;;;;
2022/09/19 00:16:00;;;;;;;1.2;1.2;;;;;;;8.5;100.0;101540;;;;
2022/09/19 00:17:01;;;;;;;1.2;1.2;;;;;;;8.4;100.0;101540;;;;
2022/09/19 00:18:00;;;;;;;1.2;1.2;;;;;;;8.4;100.0;101540;;;;
2022/09/19 00:19:01;;;;;;;1.2;1.2;;;;;;;8.4;100.0;101540;;;;
2022/09/19 00:20:00;;;;;;;1.2;1.2;;;;;;;8.4;100.0;101540;;;;
2022/09/19 00:21:00;;;;;;;1.2;1.2;;;;;;;8.4;100.0;101540;;;;
2022/09/19 00:22:00;;;;;;;1.2;1.2;;;;;;;8.4;100.0;101540;;;;
2022/09/19 00:25:00;;;;;;;1.3;1.3;;;;;;;8.5;100.0;101530;;;;
2022/09/19 00:26:03;;;;;;;1.3;1.3;;;;;;;8.5;100.0;101530;;;;
2022/09/19 00:27:02;;;;;;;1.3;1.3;;;;;;;8.5;100.0;101530;;;;
2022/09/19 00:28:00;;;;;;;1.3;1.3;;;;;;;8.5;100.0;101530;;;;
2022/09/19 00:29:00;;;;;;;1.3;1.3;;;;;;;8.5;100.0;101540;;;;
2022/09/19 00:30:00;;;;;;;1.3;1.3;;;;;;;8.5;100.0;101540;;;;
2022/09/19 00:31:00;;;;;;;1.3;1.3;;;;;;;8.4;100.0;101530;;;;
2022/09/19 00:32:00;;;;;;;1.3;1.3;;;;;;;8.4;100.0;101530;;;;
2022/09/19 00:33:00;;;;;;;1.3;1.3;;;;;;;8.4;100.0;101530;;;;
2022/09/19 00:34:00;;;;;;;1.3;1.3;;;;;;;8.4;100.0;101530;;;;
2022/09/19 00:35:00;;;;;;;1.3;1.3;;;;;;;8.4;100.0;101540;;;;
2022/09/19 00:36:02;;;;;;;1.3;1.3;;;;;;;8.4;100.0;101540;;;;
2022/09/19 00:37:00;;;;;;;1.3;1.3;;;;;;;8.4;100.0;101530;;;;
2022/09/19 00:38:00;;;;;;;1.3;1.3;;;;;;;8.4;100.0;101530;;;;
2022/09/19 00:39:00;;;;;;;1.3;1.3;;;;;;;8.4;100.0;101540;;;;
2022/09/19 00:40:00;;;;;;;1.3;1.3;;;;;;;8.4;100.0;101540;;;;
2022/09/19 00:41:00;;;;;;;1.3;1.3;;;;;;;8.4;100.0;101540;;;;
2022/09/19 00:42:00;;;;;;;1.3;1.3;;;;;;;8.4;100.0;101540;;;;
2022/09/19 00:43:00;;;;;;;1.3;1.3;;;;;;;8.4;100.0;101540;;;;
2022/09/19 00:44:02;;;;;;;1.3;1.3;;;;;;;8.4;100.0;101540;;;;
2022/09/19 00:45:01;;;;;;;1.4;1.4;;;;;;;8.5;100.0;101540;;;;
2022/09/19 00:46:00;;;;;;;1.4;1.4;;;;;;;8.5;100.0;101540;;;;
2022/09/19 00:47:05;;;;;;;1.4;1.4;;;;;;;8.4;100.0;101540;;;;
2022/09/19 00:48:00;;;;;;;1.4;1.4;;;;;;;8.4;100.0;101540;;;;
2022/09/19 00:49:03;;;;;;;1.4;1.4;;;;;;;8.5;100.0;101540;;;;
2022/09/19 00:50:00;;;;;;;1.4;1.4;;;;;;;8.5;100.0;101540;;;;
2022/09/19 00:51:01;;;;;;;1.4;1.4;;;;;;;8.5;100.0;101550;;;;
2022/09/19 00:52:03;;;;;;;1.4;1.4;;;;;;;8.5;100.0;101550;;;;
2022/09/19 00:53:04;;;;;;;1.4;1.4;;;;;;;8.4;100.0;101550;;;;
2022/09/19 00:54:01;;;;;;;1.4;1.4;;;;;;;8.4;100.0;101550;;;;
2022/09/19 00:55:00;;;;;;;1.4;1.4;;;;;;;8.4;100.0;101540;;;;
2022/09/19 00:56:00;;;;;;;1.4;1.4;;;;;;;8.4;100.0;101540;;;;
2022/09/19 00:57:01;;;;;;;1.4;1.4;;;;;;;8.4;100.0;101550;;;;
2022/09/19 00:58:07;;;;;;;1.4;1.4;;;;;;;8.4;100.0;101550;;;;
2022/09/19 00:59:01;;;;;;;1.4;1.4;;;;;;;8.4;100.0;101550;;;;
2022/09/19 01:00:00;;;;;;;1.4;1.4;;;;;;;8.4;100.0;101550;;;;
2022/09/19 01:01:00;;;;;;;1.4;1.4;;;;;;;8.5;100.0;101550;;;;
2022/09/19 01:02:04;;;;;;;1.4;1.4;;;;;;;8.5;100.0;101550;;;;
2022/09/19 01:03:01;;;;;;;1.4;1.4;;;;;;;8.5;100.0;101560;;;;
2022/09/19 01:04:01;;;;;;;1.2;1.2;;;;;;;8.5;100.0;101560;;;;
2022/09/19 01:05:02;;;;;;;1.2;1.2;;;;;;;8.4;100.0;101550;;;;
2022/09/19 01:06:10;;;;;;;1.2;1.2;;;;;;;8.4;100.0;101550;;;;
2022/09/19 01:07:11;;;;;;;1.2;1.2;;;;;;;8.5;100.0;101560;;;;
2022/09/19 01:08:01;;;;;;;1.2;1.2;;;;;;;8.5;100.0;101560;;;;
2022/09/19 01:09:06;;;;;;;1.2;1.2;;;;;;;8.4;100.0;101550;;;;
2022/09/19 01:10:10;;;;;;;1.2;1.2;;;;;;;8.4;100.0;101550;;;;
2022/09/19 01:11:10;;;;;;;1.2;1.2;;;;;;;8.4;100.0;101560;;;;
2022/09/19 01:12:11;;;;;;;1.2;1.2;;;;;;;8.4;100.0;101560;;;;
2022/09/19 01:13:10;;;;;;;1.2;1.2;;;;;;;8.5;100.0;101560;;;;
2022/09/19 01:14:00;;;;;;;1.2;1.2;;;;;;;8.5;100.0;101560;;;;
2022/09/19 01:15:09;;;;;;;1.2;1.2;;;;;;;8.5;100.0;101560;;;;
2022/09/19 01:16:03;;;;;;;1.2;1.2;;;;;;;8.5;100.0;101560;;;;
2022/09/19 01:17:10;;;;;;;1.2;1.2;;;;;;;8.5;100.0;101560;;;;
2022/09/19 01:18:01;;;;;;;1.2;1.2;;;;;;;8.5;100.0;101560;;;;
2022/09/19 01:19:10;;;;;;;1.2;1.2;;;;;;;8.5;100.0;101560;;;;
2022/09/19 01:20:10;;;;;;;1.2;1.2;;;;;;;8.5;100.0;101560;;;;
2022/09/19 01:22:03;;;;;;;1.2;1.2;;;;;;;8.4;100.0;101560;;;;
2022/09/19 01:23:12;;;;;;;1.2;1.2;;;;;;;8.4;100.0;101560;;;;
2022/09/19 01:24:04;;;;;;;1.6;1.6;;;;;;;8.4;100.0;101560;;;;
2022/09/19 01:25:10;;;;;;;1.6;1.6;;;;;;;8.6;100.0;101560;;;;
2022/09/19 01:26:10;;;;;;;1.6;1.6;;;;;;;8.6;100.0;101560;;;;
2022/09/19 01:27:10;;;;;;;1.6;1.6;;;;;;;8.7;100.0;101570;;;;
2022/09/19 01:28:06;;;;;;;1.6;1.6;;;;;;;8.7;100.0;101570;;;;
2022/09/19 01:29:07;;;;;;;1.6;1.6;;;;;;;8.6;100.0;101570;;;;
2022/09/19 01:30:03;;;;;;;1.6;1.6;;;;;;;8.6;100.0;101570;;;;
2022/09/19 01:32:02;;;;;;;1.6;1.6;;;;;;;8.6;100.0;101570;;;;
2022/09/19 01:33:05;;;;;;;1.6;1.6;;;;;;;8.6;100.0;101570;;;;
2022/09/19 01:34:05;;;;;;;1.6;1.6;;;;;;;8.6;100.0;101570;;;;
2022/09/19 01:35:03;;;;;;;1.6;1.6;;;;;;;8.7;100.0;101570;;;;
2022/09/19 01:36:00;;;;;;;1.6;1.6;;;;;;;8.7;100.0;101570;;;;
2022/09/19 01:37:12;;;;;;;1.6;1.6;;;;;;;8.7;100.0;101570;;;;
2022/09/19 01:38:03;;;;;;;1.6;1.6;;;;;;;8.7;100.0;101570;;;;
2022/09/19 01:39:02;;;;;;;1.6;1.6;;;;;;;8.6;100.0;101570;;;;
2022/09/19 01:40:02;;;;;;;1.6;1.6;;;;;;;8.6;100.0;101570;;;;
2022/09/19 01:41:00;;;;;;;1.6;1.6;;;;;;;8.6;100.0;101570;;;;
2022/09/19 01:42:01;;;;;;;1.6;1.6;;;;;;;8.6;100.0;101570;;;;
2022/09/19 01:43:00;;;;;;;1.6;1.6;;;;;;;8.5;100.0;101570;;;;
2022/09/19 01:44:05;;;;;;;1.2;1.2;;;;;;;8.5;100.0;101570;;;;
2022/09/19 01:45:00;;;;;;;1.2;1.2;;;;;;;8.5;100.0;101570;;;;
2022/09/19 01:46:07;;;;;;;1.2;1.2;;;;;;;8.5;100.0;101570;;;;
2022/09/19 01:47:08;;;;;;;1.2;1.2;;;;;;;8.5;100.0;101570;;;;
2022/09/19 01:48:06;;;;;;;1.2;1.2;;;;;;;8.5;100.0;101570;;;;
2022/09/19 01:49:06;;;;;;;1.2;1.2;;;;;;;8.4;100.0;101570;;;;
2022/09/19 01:50:05;;;;;;;1.2;1.2;;;;;;;8.4;100.0;101570;;;;
2022/09/19 01:51:00;;;;;;;1.2;1.2;;;;;;;8.5;100.0;101580;;;;
2022/09/19 01:52:10;;;;;;;1.2;1.2;;;;;;;8.5;100.0;101580;;;;
2022/09/19 01:53:10;;;;;;;1.2;1.2;;;;;;;8.5;100.0;101580;;;;
2022/09/19 01:54:10;;;;;;;1.2;1.2;;;;;;;8.5;100.0;101580;;;;
2022/09/19 01:55:03;;;;;;;1.2;1.2;;;;;;;8.6;100.0;101580;;;;
2022/09/19 01:56:00;;;;;;;1.2;1.2;;;;;;;8.6;100.0;101580;;;;
2022/09/19 01:57:10;;;;;;;1.2;1.2;;;;;;;8.4;100.0;101580;;;;
2022/09/19 01:58:04;;;;;;;1.2;1.2;;;;;;;8.4;100.0;101580;;;;
2022/09/19 01:59:11;;;;;;;1.2;1.2;;;;;;;8.5;100.0;101580;;;;
2022/09/19 02:00:03;;;;;;;1.2;1.2;;;;;;;8.5;100.0;101580;;;;
2022/09/19 02:01:10;;;;;;;1.2;1.2;;;;;;;8.4;100.0;101580;;;;
2022/09/19 02:02:10;;;;;;;1.2;1.2;;;;;;;8.4;100.0;101580;;;;
2022/09/19 02:03:10;;;;;;;1.2;1.2;;;;;;;8.4;100.0;101590;;;;
2022/09/19 02:04:10;;;;;;;1.0;1.0;;;;;;;8.4;100.0;101590;;;;
2022/09/19 02:05:00;;;;;;;1.0;1.0;;;;;;;8.4;100.0;101590;;;;
2022/09/19 02:06:06;;;;;;;1.0;1.0;;;;;;;8.4;100.0;101590;;;;
2022/09/19 02:07:07;;;;;;;1.0;1.0;;;;;;;8.4;100.0;101590;;;;
2022/09/19 02:08:01;;;;;;;1.0;1.0;;;;;;;8.4;100.0;101590;;;;
2022/09/19 02:09:04;;;;;;;1.0;1.0;;;;;;;8.4;100.0;101590;;;;
2022/09/19 02:10:05;;;;;;;1.0;1.0;;;;;;;8.4;100.0;101590;;;;
2022/09/19 02:11:04;;;;;;;1.0;1.0;;;;;;;8.4;100.0;101590;;;;
2022/09/19 02:12:01;;;;;;;1.0;1.0;;;;;;;8.4;100.0;101590;;;;
2022/09/19 02:13:03;;;;;;;1.0;1.0;;;;;;;8.3;100.0;101590;;;;
2022/09/19 02:14:07;;;;;;;1.0;1.0;;;;;;;8.3;100.0;101590;;;;
2022/09/19 02:15:01;;;;;;;1.0;1.0;;;;;;;8.3;100.0;101590;;;;
2022/09/19 02:16:02;;;;;;;1.0;1.0;;;;;;;8.3;100.0;101590;;;;
2022/09/19 02:17:03;;;;;;;1.0;1.0;;;;;;;8.3;100.0;101590;;;;
2022/09/19 02:18:10;;;;;;;1.0;1.0;;;;;;;8.3;100.0;101590;;;;
2022/09/19 02:19:04;;;;;;;1.0;1.0;;;;;;;8.2;100.0;101590;;;;
2022/09/19 02:20:07;;;;;;;1.0;1.0;;;;;;;8.2;100.0;101590;;;;
2022/09/19 02:21:04;;;;;;;1.0;1.0;;;;;;;8.3;100.0;101580;;;;
2022/09/19 02:22:02;;;;;;;1.0;1.0;;;;;;;8.3;100.0;101580;;;;
2022/09/19 02:23:08;;;;;;;1.0;1.0;;;;;;;8.3;100.0;101590;;;;
2022/09/19 02:24:05;;;;;;;1.2;1.2;;;;;;;8.3;100.0;101590;;;;
2022/09/19 02:25:02;;;;;;;1.2;1.2;;;;;;;8.3;100.0;101580;;;;
2022/09/19 02:26:03;;;;;;;1.2;1.2;;;;;;;8.3;100.0;101580;;;;
2022/09/19 02:27:07;;;;;;;1.2;1.2;;;;;;;8.3;100.0;101590;;;;
2022/09/19 02:28:04;;;;;;;1.2;1.2;;;;;;;8.3;100.0;101590;;;;
2022/09/19 02:29:01;;;;;;;1.2;1.2;;;;;;;8.4;100.0;101580;;;;
2022/09/19 02:30:05;;;;;;;1.2;1.2;;;;;;;8.4;100.0;101580;;;;
2022/09/19 02:31:00;;;;;;;1.2;1.2;;;;;;;8.4;100.0;101590;;;;
2022/09/19 02:32:00;;;;;;;1.2;1.2;;;;;;;8.4;100.0;101590;;;;
2022/09/19 02:33:07;;;;;;;1.2;1.2;;;;;;;8.4;100.0;101590;;;;
2022/09/19 02:34:02;;;;;;;1.2;1.2;;;;;;;8.4;100.0;101590;;;;
2022/09/19 02:35:00;;;;;;;1.2;1.2;;;;;;;8.3;100.0;101590;;;;
2022/09/19 02:36:09;;;;;;;1.2;1.2;;;;;;;8.3;100.0;101590;;;;
2022/09/19 02:37:04;;;;;;;1.2;1.2;;;;;;;8.3;100.0;101600;;;;
2022/09/19 02:38:10;;;;;;;1.2;1.2;;;;;;;8.3;100.0;101600;;;;
2022/09/19 02:39:10;;;;;;;1.2;1.2;;;;;;;8.3;100.0;101600;;;;
2022/09/19 02:40:08;;;;;;;1.2;1.2;;;;;;;8.3;100.0;101600;;;;
2022/09/19 02:41:10;;;;;;;1.2;1.2;;;;;;;8.3;100.0;101590;;;;
2022/09/19 02:42:10;;;;;;;1.2;1.2;;;;;;;8.3;100.0;101590;;;;
2022/09/19 02:43:07;;;;;;;1.2;1.2;;;;;;;8.2;100.0;101600;;;;
2022/09/19 02:44:13;;;;;;;1.1;1.1;;;;;;;8.2;100.0;101600;;;;
2022/09/19 02:45:02;;;;;;;1.1;1.1;;;;;;;8.3;100.0;101590;;;;
2022/09/19 02:46:04;;;;;;;1.1;1.1;;;;;;;8.3;100.0;101590;;;;
2022/09/19 02:47:08;;;;;;;1.1;1.1;;;;;;;8.2;100.0;101600;;;;
2022/09/19 02:48:10;;;;;;;1.1;1.1;;;;;;;8.2;100.0;101600;;;;
2022/09/19 02:49:04;;;;;;;1.1;1.1;;;;;;;8.2;100.0;101600;;;;
2022/09/19 02:50:07;;;;;;;1.1;1.1;;;;;;;8.2;100.0;101600;;;;
2022/09/19 02:51:05;;;;;;;1.1;1.1;;;;;;;8.2;100.0;101600;;;;
2022/09/19 02:52:04;;;;;;;1.1;1.1;;;;;;;8.2;100.0;101600;;;;
2022/09/19 02:53:03;;;;;;;1.1;1.1;;;;;;;8.2;100.0;101600;;;;
2022/09/19 02:54:06;;;;;;;1.1;1.1;;;;;;;8.2;100.0;101600;;;;
2022/09/19 02:55:12;;;;;;;1.1;1.1;;;;;;;8.2;100.0;101600;;;;
2022/09/19 02:56:01;;;;;;;1.1;1.1;;;;;;;8.2;100.0;101600;;;;
2022/09/19 02:57:04;;;;;;;1.1;1.1;;;;;;;8.1;100.0;101600;;;;
2022/09/19 02:58:02;;;;;;;1.1;1.1;;;;;;;8.1;100.0;101600;;;;
2022/09/19 02:59:03;;;;;;;1.1;1.1;;;;;;;8.2;100.0;101600;;;;
2022/09/19 03:00:01;;;;;;;1.1;1.1;;;;;;;8.2;100.0;101600;;;;
2022/09/19 03:01:02;;;;;;;1.1;1.1;;;;;;;8.2;100.0;101600;;;;
2022/09/19 03:02:04;;;;;;;1.1;1.1;;;;;;;8.2;100.0;101600;;;;
2022/09/19 03:04:11;;;;;;;1.1;1.1;;;;;;;8.2;100.0;101600;;;;
2022/09/19 03:05:10;;;;;;;1.2;1.2;;;;;;;8.2;100.0;101610;;;;
2022/09/19 03:06:01;;;;;;;1.2;1.2;;;;;;;8.2;100.0;101610;;;;
2022/09/19 03:07:00;;;;;;;1.2;1.2;;;;;;;8.2;100.0;101610;;;;
2022/09/19 03:08:05;;;;;;;1.2;1.2;;;;;;;8.2;100.0;101610;;;;
2022/09/19 03:09:01;;;;;;;1.2;1.2;;;;;;;8.2;100.0;101610;;;;
2022/09/19 03:10:09;;;;;;;1.2;1.2;;;;;;;8.2;100.0;101610;;;;
2022/09/19 03:11:00;;;;;;;1.2;1.2;;;;;;;8.3;100.0;101610;;;;
2022/09/19 03:12:18;;;;;;;1.2;1.2;;;;;;;8.3;100.0;101610;;;;
2022/09/19 03:13:03;;;;;;;1.2;1.2;;;;;;;8.2;100.0;101610;;;;
2022/09/19 03:14:00;;;;;;;1.2;1.2;;;;;;;8.2;100.0;101610;;;;
2022/09/19 03:15:00;;;;;;;1.2;1.2;;;;;;;8.2;100.0;101610;;;;
2022/09/19 03:16:06;;;;;;;1.2;1.2;;;;;;;8.2;100.0;101610;;;;
2022/09/19 03:17:01;;;;;;;1.2;1.2;;;;;;;8.3;100.0;101610;;;;
2022/09/19 03:18:01;;;;;;;1.2;1.2;;;;;;;8.3;100.0;101610;;;;
2022/09/19 03:19:01;;;;;;;1.2;1.2;;;;;;;8.3;100.0;101610;;;;
2022/09/19 03:20:00;;;;;;;1.2;1.2;;;;;;;8.3;100.0;101610;;;;
2022/09/19 03:21:02;;;;;;;1.2;1.2;;;;;;;8.2;100.0;101610;;;;
2022/09/19 03:22:00;;;;;;;1.2;1.2;;;;;;;8.2;100.0;101610;;;;
2022/09/19 03:23:00;;;;;;;1.2;1.2;;;;;;;8.4;100.0;101610;;;;
2022/09/19 03:24:00;;;;;;;1.4;1.4;;;;;;;8.4;100.0;101610;;;;
2022/09/19 03:25:02;;;;;;;1.4;1.4;;;;;;;8.4;100.0;101610;;;;
2022/09/19 03:26:01;;;;;;;1.4;1.4;;;;;;;8.4;100.0;101610;;;;
2022/09/19 03:27:00;;;;;;;1.4;1.4;;;;;;;8.3;100.0;101610;;;;
2022/09/19 03:28:00;;;;;;;1.4;1.4;;;;;;;8.3;100.0;101610;;;;
2022/09/19 03:29:02;;;;;;;1.4;1.4;;;;;;;8.3;100.0;101610;;;;
2022/09/19 03:30:00;;;;;;;1.4;1.4;;;;;;;8.3;100.0;101610;;;;
2022/09/19 03:31:00;;;;;;;1.4;1.4;;;;;;;8.3;100.0;101610;;;;
2022/09/19 03:32:00;;;;;;;1.4;1.4;;;;;;;8.3;100.0;101610;;;;
2022/09/19 03:33:00;;;;;;;1.4;1.4;;;;;;;8.2;100.0;101610;;;;
2022/09/19 03:34:00;;;;;;;1.4;1.4;;;;;;;8.2;100.0;101610;;;;
2022/09/19 03:35:02;;;;;;;1.4;1.4;;;;;;;8.3;100.0;101610;;;;
2022/09/19 03:36:07;;;;;;;1.4;1.4;;;;;;;8.3;100.0;101610;;;;
2022/09/19 03:37:00;;;;;;;1.4;1.4;;;;;;;8.3;100.0;101610;;;;
2022/09/19 03:38:01;;;;;;;1.4;1.4;;;;;;;8.3;100.0;101610;;;;
2022/09/19 03:39:02;;;;;;;1.4;1.4;;;;;;;8.3;100.0;101610;;;;
2022/09/19 03:40:01;;;;;;;1.4;1.4;;;;;;;8.3;100.0;101610;;;;
2022/09/19 03:41:00;;;;;;;1.4;1.4;;;;;;;8.2;100.0;101610;;;;
2022/09/19 03:42:00;;;;;;;1.4;1.4;;;;;;;8.2;100.0;101610;;;;
2022/09/19 03:43:00;;;;;;;1.4;1.4;;;;;;;8.3;100.0;101610;;;;
2022/09/19 03:44:01;;;;;;;2.7;2.6;;;;;;;8.3;100.0;101610;;;;
2022/09/19 03:45:00;;;;;;;2.7;2.6;;;;;;;8.3;100.0;101610;;;;
2022/09/19 03:46:00;;;;;;;2.7;2.6;;;;;;;8.3;100.0;101610;;;;
2022/09/19 03:47:00;;;;;;;2.7;2.6;;;;;;;8.2;100.0;101610;;;;
2022/09/19 03:48:00;;;;;;;2.7;2.6;;;;;;;8.2;100.0;101610;;;;
2022/09/19 03:49:00;;;;;;;2.7;2.6;;;;;;;8.3;100.0;101610;;;;
2022/09/19 03:50:00;;;;;;;2.7;2.6;;;;;;;8.3;100.0;101610;;;;
2022/09/19 03:51:01;;;;;;;2.7;2.6;;;;;;;8.3;100.0;101610;;;;
2022/09/19 03:52:00;;;;;;;2.7;2.6;;;;;;;8.3;100.0;101610;;;;
2022/09/19 03:53:00;;;;;;;2.7;2.6;;;;;;;8.3;100.0;101620;;;;
2022/09/19 03:54:00;;;;;;;2.7;2.6;;;;;;;8.3;100.0;101620;;;;
2022/09/19 03:55:00;;;;;;;2.7;2.6;;;;;;;8.3;100.0;101620;;;;
2022/09/19 03:56:00;;;;;;;2.7;2.6;;;;;;;8.3;100.0;101620;;;;
2022/09/19 03:57:00;;;;;;;2.7;2.6;;;;;;;8.4;100.0;101620;;;;
2022/09/19 03:58:00;;;;;;;2.7;2.6;;;;;;;8.4;100.0;101620;;;;
2022/09/19 03:59:00;;;;;;;2.7;2.6;;;;;;;8.4;100.0;101620;;;;
2022/09/19 04:00:00;;;;;;;2.7;2.6;;;;;;;8.4;100.0;101620;;;;
2022/09/19 04:01:00;;;;;;;2.7;2.6;;;;;;;8.5;100.0;101620;;;;
2022/09/19 04:02:00;;;;;;;2.7;2.6;;;;;;;8.5;100.0;101620;;;;
2022/09/19 04:03:00;;;;;;;2.7;2.6;;;;;;;8.6;100.0;101620;;;;
2022/09/19 04:04:00;;;;;;;1.1;1.1;;;;;;;8.6;100.0;101620;;;;
2022/09/19 04:05:01;;;;;;;1.1;1.1;;;;;;;8.6;100.0;101620;;;;
2022/09/19 04:06:00;;;;;;;1.1;1.1;;;;;;;8.6;100.0;101620;;;;
2022/09/19 04:07:01;;;;;;;1.1;1.1;;;;;;;8.6;100.0;101630;;;;
2022/09/19 04:08:01;;;;;;;1.1;1.1;;;;;;;8.6;100.0;101630;;;;
2022/09/19 04:09:00;;;;;;;1.1;1.1;;;;;;;8.6;100.0;101630;;;;
2022/09/19 04:10:00;;;;;;;1.1;1.1;;;;;;;8.6;100.0;101630;;;;
2022/09/19 04:11:00;;;;;;;1.1;1.1;;;;;;;8.6;100.0;101630;;;;
2022/09/19 04:12:05;;;;;;;1.1;1.1;;;;;;;8.6;100.0;101630;;;;
2022/09/19 04:13:00;;;;;;;1.1;1.1;;;;;;;8.6;100.0;101630;;;;
2022/09/19 04:14:00;;;;;;;1.1;1.1;;;;;;;8.6;100.0;101630;;;;
2022/09/19 04:15:00;;;;;;;1.1;1.1;;;;;;;8.5;100.0;101630;;;;
2022/09/19 04:16:00;;;;;;;1.1;1.1;;;;;;;8.5;100.0;101630;;;;
2022/09/19 04:17:11;;;;;;;1.1;1.1;;;;;;;8.4;100.0;101630;;;;
2022/09/19 04:18:00;;;;;;;1.1;1.1;;;;;;;8.4;100.0;101630;;;;
2022/09/19 04:19:00;;;;;;;1.1;1.1;;;;;;;8.4;100.0;101630;;;;
2022/09/19 04:20:00;;;;;;;1.1;1.1;;;;;;;8.4;100.0;101630;;;;
2022/09/19 04:21:00;;;;;;;1.1;1.1;;;;;;;8.4;100.0;101630;;;;
2022/09/19 04:22:01;;;;;;;1.1;1.1;;;;;;;8.4;100.0;101630;;;;
2022/09/19 04:23:00;;;;;;;1.1;1.1;;;;;;;8.4;100.0;101630;;;;
2022/09/19 04:24:00;;;;;;;1.1;1.1;;;;;;;8.4;100.0;101630;;;;
2022/09/19 04:25:00;;;;;;;1.1;1.1;;;;;;;8.4;100.0;101630;;;;
2022/09/19 04:26:02;;;;;;;1.1;1.1;;;;;;;8.4;100.0;101630;;;;
2022/09/19 04:27:02;;;;;;;1.1;1.1;;;;;;;8.4;100.0;101630;;;;
2022/09/19 04:28:02;;;;;;;1.1;1.1;;;;;;;8.4;100.0;101630;;;;
2022/09/19 04:29:03;;;;;;;1.1;1.1;;;;;;;8.4;100.0;101630;;;;
2022/09/19 04:30:00;;;;;;;1.1;1.1;;;;;;;8.4;100.0;101630;;;;
2022/09/19 04:31:00;;;;;;;1.1;1.1;;;;;;;8.4;100.0;101630;;;;
2022/09/19 04:32:02;;;;;;;1.1;1.1;;;;;;;8.4;100.0;101630;;;;
2022/09/19 04:33:00;;;;;;;1.1;1.1;;;;;;;8.4;100.0;101630;;;;
2022/09/19 04:34:02;;;;;;;1.1;1.1;;;;;;;8.4;100.0;101630;;;;
2022/09/19 04:35:00;;;;;;;1.1;1.1;;;;;;;8.4;100.0;101640;;;;
2022/09/19 04:36:00;;;;;;;1.1;1.1;;;;;;;8.4;100.0;101640;;;;
2022/09/19 04:37:06;;;;;;;1.1;1.1;;;;;;;8.4;100.0;101640;;;;
2022/09/19 04:38:00;;;;;;;1.1;1.1;;;;;;;8.4;100.0;101640;;;;
2022/09/19 04:39:02;;;;;;;1.1;1.1;;;;;;;8.3;100.0;101640;;;;
2022/09/19 04:40:00;;;;;;;1.1;1.1;;;;;;;8.3;100.0;101640;;;;
2022/09/19 04:41:01;;;;;;;1.1;1.1;;;;;;;8.3;100.0;101650;;;;
2022/09/19 04:42:01;;;;;;;1.1;1.1;;;;;;;8.3;100.0;101650;;;;
2022/09/19 04:43:00;;;;;;;1.1;1.1;;;;;;;8.3;100.0;101640;;;;
2022/09/19 04:44:00;;;;;;;1.1;1.1;;;;;;;8.3;100.0;101640;;;;
2022/09/19 04:45:00;;;;;;;1.1;1.1;;;;;;;8.3;100.0;101640;;;;
2022/09/19 04:46:01;;;;;;;1.1;1.1;;;;;;;8.3;100.0;101640;;;;
2022/09/19 04:47:00;;;;;;;1.1;1.1;;;;;;;8.4;100.0;101650;;;;
2022/09/19 04:48:02;;;;;;;1.1;1.1;;;;;;;8.4;100.0;101650;;;;
2022/09/19 04:49:00;;;;;;;1.1;1.1;;;;;;;8.3;100.0;101650;;;;
2022/09/19 04:50:08;;;;;;;1.1;1.1;;;;;;;8.3;100.0;101650;;;;
2022/09/19 04:51:01;;;;;;;1.1;1.1;;;;;;;8.3;100.0;101650;;;;
2022/09/19 04:52:00;;;;;;;1.1;1.1;;;;;;;8.3;100.0;101650;;;;
2022/09/19 04:53:00;;;;;;;1.1;1.1;;;;;;;8.3;100.0;101650;;;;
2022/09/19 04:54:01;;;;;;;1.1;1.1;;;;;;;8.3;100.0;101650;;;;
2022/09/19 04:55:00;;;;;;;1.1;1.1;;;;;;;8.2;100.0;101660;;;;
2022/09/19 04:56:00;;;;;;;1.1;1.1;;;;;;;8.2;100.0;101660;;;;
2022/09/19 04:57:00;;;;;;;1.1;1.1;;;;;;;8.3;100.0;101660;;;;
2022/09/19 04:58:00;;;;;;;1.1;1.1;;;;;;;8.3;100.0;101660;;;;
2022/09/19 04:59:00;;;;;;;1.1;1.1;;;;;;;8.3;100.0;101660;;;;
2022/09/19 05:00:00;;;;;;;1.1;1.1;;;;;;;8.3;100.0;101660;;;;
2022/09/19 05:01:00;;;;;;;1.1;1.1;;;;;;;8.4;100.0;101660;;;;
2022/09/19 05:02:01;;;;;;;1.1;1.1;;;;;;;8.4;100.0;101660;;;;
2022/09/19 05:03:00;;;;;;;1.1;1.1;;;;;;;8.4;100.0;101660;;;;
2022/09/19 05:04:00;;;;;;;4.4;4.1;;;;;;;8.4;100.0;101660;;;;
2022/09/19 05:05:00;;;;;;;4.4;4.1;;;;;;;8.4;100.0;101660;;;;
2022/09/19 05:06:00;;;;;;;4.4;4.1;;;;;;;8.4;100.0;101660;;;;
2022/09/19 05:07:00;;;;;;;4.4;4.1;;;;;;;8.4;100.0;101660;;;;
2022/09/19 05:08:00;;;;;;;4.4;4.1;;;;;;;8.4;100.0;101660;;;;
2022/09/19 05:09:00;;;;;;;4.4;4.1;;;;;;;8.4;100.0;101670;;;;
2022/09/19 05:10:01;;;;;;;4.4;4.1;;;;;;;8.4;100.0;101670;;;;
2022/09/19 05:11:01;;;;;;;4.4;4.1;;;;;;;8.4;100.0;101660;;;;
2022/09/19 05:12:00;;;;;;;4.4;4.1;;;;;;;8.4;100.0;101660;;;;
2022/09/19 05:13:00;;;;;;;4.4;4.1;;;;;;;8.4;100.0;101670;;;;
2022/09/19 05:14:00;;;;;;;4.4;4.1;;;;;;;8.4;100.0;101670;;;;
2022/09/19 05:15:00;;;;;;;4.4;4.1;;;;;;;8.4;100.0;101670;;;;
2022/09/19 05:16:01;;;;;;;4.4;4.1;;;;;;;8.4;100.0;101670;;;;
2022/09/19 05:17:00;;;;;;;4.4;4.1;;;;;;;8.4;100.0;101670;;;;
2022/09/19 05:18:00;;;;;;;4.4;4.1;;;;;;;8.4;100.0;101670;;;;
2022/09/19 05:19:00;;;;;;;4.4;4.1;;;;;;;8.3;100.0;101680;;;;
2022/09/19 05:20:00;;;;;;;4.4;4.1;;;;;;;8.3;100.0;101680;;;;
2022/09/19 05:21:03;;;;;;;4.4;4.1;;;;;;;8.3;100.0;101680;;;;
2022/09/19 05:22:00;;;;;;;4.4;4.1;;;;;;;8.3;100.0;101680;;;;
2022/09/19 05:23:00;;;;;;;1.3;1.3;;;;;;;8.2;100.0;101680;;;;
2022/09/19 05:24:01;;;;;;;1.3;1.3;;;;;;;8.2;100.0;101680;;;;
2022/09/19 05:25:03;;;;;;;1.3;1.3;;;;;;;8.2;100.0;101680;;;;
2022/09/19 05:26:02;;;;;;;1.3;1.3;;;;;;;8.2;100.0;101680;;;;
2022/09/19 05:27:02;;;;;;;1.3;1.3;;;;;;;8.2;100.0;101680;;;;
2022/09/19 05:28:04;;;;;;;1.3;1.3;;;;;;;8.2;100.0;101680;;;;
2022/09/19 05:29:00;;;;;;;1.3;1.3;;;;;;;8.3;100.0;101680;;;;
2022/09/19 05:30:00;;;;;;;1.3;1.3;;;;;;;8.3;100.0;101680;;;;
2022/09/19 05:31:04;;;;;;;1.3;1.3;;;;;;;8.2;100.0;101680;;;;
2022/09/19 05:32:04;;;;;;;1.3;1.3;;;;;;;8.2;100.0;101680;;;;
2022/09/19 05:33:04;;;;;;;1.3;1.3;;;;;;;8.2;100.0;101680;;;;
2022/09/19 05:34:00;;;;;;;1.3;1.3;;;;;;;8.2;100.0;101680;;;;
2022/09/19 05:35:00;;;;;;;1.3;1.3;;;;;;;8.2;100.0;101680;;;;
2022/09/19 05:36:01;;;;;;;1.3;1.3;;;;;;;8.2;100.0;101680;;;;
2022/09/19 05:37:00;;;;;;;1.3;1.3;;;;;;;8.2;100.0;101680;;;;
2022/09/19 05:38:00;;;;;;;1.3;1.3;;;;;;;8.2;100.0;101680;;;;
2022/09/19 05:39:00;;;;;;;1.3;1.3;;;;;;;8.1;100.0;101690;;;;
2022/09/19 05:40:00;;;;;;;1.3;1.3;;;;;;;8.1;100.0;101690;;;;
2022/09/19 05:41:02;;;;;;;1.3;1.3;;;;;;;8.2;100.0;101700;;;;
2022/09/19 05:42:00;;;;;;;1.3;1.3;;;;;;;8.2;100.0;101700;;;;
2022/09/19 05:43:03;;;;;;;1.2;1.2;;;;;;;8.2;100.0;101700;;;;
2022/09/19 05:44:00;;;;;;;1.2;1.2;;;;;;;8.2;100.0;101700;;;;
2022/09/19 05:45:00;;;;;;;1.2;1.2;;;;;;;8.2;100.0;101700;;;;
2022/09/19 05:46:00;;;;;;;1.2;1.2;;;;;;;8.2;100.0;101700;;;;
2022/09/19 05:47:01;;;;;;;1.2;1.2;;;;;;;8.2;100.0;101700;;;;
2022/09/19 05:48:00;;;;;;;1.2;1.2;;;;;;;8.2;100.0;101700;;;;
2022/09/19 05:49:00;;;;;;;1.2;1.2;;;;;;;8.2;100.0;101700;;;;
2022/09/19 05:50:00;;;;;;;1.2;1.2;;;;;;;8.2;100.0;101700;;;;
2022/09/19 05:51:02;;;;;;;1.2;1.2;;;;;;;8.2;100.0;101700;;;;
2022/09/19 05:53:51;;;;;;;1.2;1.2;;;;;;;8.2;100.0;101700;;;;
2022/09/19 05:54:00;;;;;;;1.2;1.2;;;;;;;8.3;100.0;101700;;;;
2022/09/19 05:55:00;;;;;;;1.2;1.2;;;;;;;8.3;100.0;101700;;;;
2022/09/19 05:56:00;;;;;;;1.2;1.2;;;;;;;8.3;100.0;101700;;;;
2022/09/19 05:57:00;;;;;;;1.2;1.2;;;;;;;8.3;100.0;101710;;;;
2022/09/19 05:58:00;;;;;;;1.2;1.2;;;;;;;8.3;100.0;101710;;;;
2022/09/19 05:59:00;;;;;;;1.2;1.2;;;;;;;8.4;100.0;101700;;;;
2022/09/19 06:00:00;;;;;;;1.2;1.2;;;;;;;8.4;100.0;101700;;;;
2022/09/19 06:01:02;;;;;;;1.2;1.2;;;;;;;8.5;100.0;101700;;;;
2022/09/19 06:02:01;;;;;;;1.2;1.2;;;;;;;8.5;100.0;101700;;;;
2022/09/19 06:03:01;;;;;;;1.3;1.3;;;;;;;8.5;100.0;101700;;;;
2022/09/19 06:04:01;;;;;;;1.3;1.3;;;;;;;8.5;100.0;101700;;;;
2022/09/19 06:05:00;;;;;;;1.3;1.3;;;;;;;8.6;100.0;101700;;;;
2022/09/19 06:06:00;;;;;;;1.3;1.3;;;;;;;8.6;100.0;101700;;;;
2022/09/19 06:07:00;;;;;;;1.3;1.3;;;;;;;8.6;100.0;101710;;;;
2022/09/19 06:08:00;;;;;;;1.3;1.3;;;;;;;8.6;100.0;101710;;;;
2022/09/19 06:09:00;;;;;;;1.3;1.3;;;;;;;8.7;100.0;101710;;;;
2022/09/19 06:10:00;;;;;;;1.3;1.3;;;;;;;8.7;100.0;101710;;;;
2022/09/19 06:11:00;;;;;;;1.3;1.3;;;;;;;8.7;100.0;101700;;;;
2022/09/19 06:12:00;;;;;;;1.3;1.3;;;;;;;8.7;100.0;101700;;;;
2022/09/19 06:13:00;;;;;;;1.3;1.3;;;;;;;8.8;100.0;101710;;;;
2022/09/19 06:15:00;;;;;;;1.3;1.3;;;;;;;8.8;100.0;101710;;;;
2022/09/19 06:16:00;;;;;;;1.3;1.3;;;;;;;8.8;100.0;101710;;;;
2022/09/19 06:17:00;;;;;;;1.3;1.3;;;;;;;8.8;100.0;101710;;;;
2022/09/19 06:18:00;;;;;;;1.3;1.3;;;;;;;8.8;100.0;101710;;;;
2022/09/19 06:19:00;;;;;;;1.3;1.3;;;;;;;8.9;100.0;101710;;;;
2022/09/19 06:20:00;;;;;;;1.3;1.3;;;;;;;8.9;100.0;101710;;;;
2022/09/19 06:21:00;;;;;;;1.3;1.3;;;;;;;8.8;100.0;101710;;;;
2022/09/19 06:22:00;;;;;;;1.3;1.3;;;;;;;8.8;100.0;101710;;;;
2022/09/19 06:23:01;;;;;;;1.2;1.2;;;;;;;8.9;100.0;101710;;;;
2022/09/19 06:24:01;;;;;;;1.2;1.2;;;;;;;8.9;100.0;101710;;;;
2022/09/19 06:25:00;;;;;;;1.2;1.2;;;;;;;9.0;100.0;101720;;;;
2022/09/19 06:26:00;;;;;;;1.2;1.2;;;;;;;9.0;100.0;101720;;;;
2022/09/19 06:27:00;;;;;;;1.2;1.2;;;;;;;9.1;100.0;101720;;;;
2022/09/19 06:28:01;;;;;;;1.2;1.2;;;;;;;9.1;100.0;101720;;;;
2022/09/19 06:29:01;;;;;;;1.2;1.2;;;;;;;9.1;100.0;101720;;;;
2022/09/19 06:30:01;;;;;;;1.2;1.2;;;;;;;9.1;100.0;101720;;;;
2022/09/19 06:31:03;;;;;;;1.2;1.2;;;;;;;9.2;100.0;101720;;;;
2022/09/19 06:32:02;;;;;;;1.2;1.2;;;;;;;9.2;100.0;101720;;;;
2022/09/19 06:33:00;;;;;;;1.2;1.2;;;;;;;9.2;100.0;101730;;;;
2022/09/19 06:34:00;;;;;;;1.2;1.2;;;;;;;9.2;100.0;101730;;;;
2022/09/19 06:35:00;;;;;;;1.2;1.2;;;;;;;9.3;100.0;101720;;;;
2022/09/19 06:36:00;;;;;;;1.2;1.2;;;;;;;9.3;100.0;101720;;;;